sensor_id;sensor_type;location;lat;lon;timestamp;P1;durP1;ratioP1;P2;durP2;ratioP2
75427;SDS011;64008;55.612;37.698;2023-06-26T00:00:16;13.60;;;7.07;;
75427;SDS011;64008;55.612;37.698;2023-06-26T00:02:41;13.27;;;7.30;;
75427;SDS011;64008;55.612;37.698;2023-06-26T00:05:07;14.18;;;7.32;;
75427;SDS011;64008;55.612;37.698;2023-06-26T00:07:33;12.65;;;6.18;;
75427;SDS011;64008;55.612;37.698;2023-06-26T00:10:02;15.38;;;7.45;;
75427;SDS011;64008;55.612;37.698;2023-06-26T00:12:29;12.32;;;6.70;;
75427;SDS011;64008;55.612;37.698;2023-06-26T00:14:55;13.30;;;7.30;;
75427;SDS011;64008;55.612;37.698;2023-06-26T00:17:20;15.25;;;6.75;;
75427;SDS011;64008;55.612;37.698;2023-06-26T00:19:46;11.68;;;6.53;;
75427;SDS011;64008;55.612;37.698;2023-06-26T00:22:12;12.07;;;6.38;;
75427;SDS011;64008;55.612;37.698;2023-06-26T00:24:38;14.75;;;7.32;;
75427;SDS011;64008;55.612;37.698;2023-06-26T00:27:03;16.63;;;7.07;;
75427;SDS011;64008;55.612;37.698;2023-06-26T00:29:29;11.43;;;6.90;;
75427;SDS011;64008;55.612;37.698;2023-06-26T00:31:54;14.00;;;7.05;;
75427;SDS011;64008;55.612;37.698;2023-06-26T00:34:20;10.00;;;6.13;;
75427;SDS011;64008;55.612;37.698;2023-06-26T00:36:45;14.27;;;6.75;;
75427;SDS011;64008;55.612;37.698;2023-06-26T00:39:11;11.57;;;6.90;;
75427;SDS011;64008;55.612;37.698;2023-06-26T00:41:37;12.93;;;7.28;;
75427;SDS011;64008;55.612;37.698;2023-06-26T00:44:03;13.82;;;6.70;;
75427;SDS011;64008;55.612;37.698;2023-06-26T00:46:29;14.13;;;7.25;;
75427;SDS011;64008;55.612;37.698;2023-06-26T00:48:56;14.13;;;7.90;;
75427;SDS011;64008;55.612;37.698;2023-06-26T00:51:24;12.32;;;7.53;;
75427;SDS011;64008;55.612;37.698;2023-06-26T00:53:49;15.43;;;7.90;;
75427;SDS011;64008;55.612;37.698;2023-06-26T00:56:16;11.57;;;6.97;;
75427;SDS011;64008;55.612;37.698;2023-06-26T00:58:43;12.75;;;7.30;;
75427;SDS011;64008;55.612;37.698;2023-06-26T01:01:09;11.63;;;6.85;;
75427;SDS011;64008;55.612;37.698;2023-06-26T01:03:40;12.45;;;7.45;;
75427;SDS011;64008;55.612;37.698;2023-06-26T01:06:07;13.35;;;7.90;;
75427;SDS011;64008;55.612;37.698;2023-06-26T01:08:36;15.80;;;7.82;;
75427;SDS011;64008;55.612;37.698;2023-06-26T01:11:03;16.13;;;8.40;;
75427;SDS011;64008;55.612;37.698;2023-06-26T01:13:29;15.75;;;7.95;;
75427;SDS011;64008;55.612;37.698;2023-06-26T01:15:57;14.38;;;7.55;;
75427;SDS011;64008;55.612;37.698;2023-06-26T01:18:24;12.68;;;7.72;;
75427;SDS011;64008;55.612;37.698;2023-06-26T01:20:50;13.68;;;7.95;;
75427;SDS011;64008;55.612;37.698;2023-06-26T01:26:21;13.50;;;8.13;;
75427;SDS011;64008;55.612;37.698;2023-06-26T01:28:49;13.85;;;8.68;;
75427;SDS011;64008;55.612;37.698;2023-06-26T01:31:16;17.98;;;9.25;;
75427;SDS011;64008;55.612;37.698;2023-06-26T01:36:08;13.90;;;7.85;;
75427;SDS011;64008;55.612;37.698;2023-06-26T01:38:34;15.13;;;8.60;;
75427;SDS011;64008;55.612;37.698;2023-06-26T01:40:59;17.17;;;9.13;;
75427;SDS011;64008;55.612;37.698;2023-06-26T01:43:43;16.45;;;8.15;;
75427;SDS011;64008;55.612;37.698;2023-06-26T01:46:27;13.65;;;8.15;;
75427;SDS011;64008;55.612;37.698;2023-06-26T01:52:30;17.50;;;8.00;;
75427;SDS011;64008;55.612;37.698;2023-06-26T01:57:46;14.00;;;8.55;;
75427;SDS011;64008;55.612;37.698;2023-06-26T02:02:43;13.63;;;7.68;;
75427;SDS011;64008;55.612;37.698;2023-06-26T02:05:09;13.82;;;8.65;;
75427;SDS011;64008;55.612;37.698;2023-06-26T02:07:35;16.35;;;7.72;;
75427;SDS011;64008;55.612;37.698;2023-06-26T02:10:01;15.52;;;8.77;;
75427;SDS011;64008;55.612;37.698;2023-06-26T02:12:27;14.50;;;7.97;;
75427;SDS011;64008;55.612;37.698;2023-06-26T02:14:53;15.50;;;8.48;;
75427;SDS011;64008;55.612;37.698;2023-06-26T02:17:18;14.10;;;7.85;;
75427;SDS011;64008;55.612;37.698;2023-06-26T02:19:44;19.95;;;8.27;;
75427;SDS011;64008;55.612;37.698;2023-06-26T02:22:15;13.68;;;7.78;;
75427;SDS011;64008;55.612;37.698;2023-06-26T02:24:42;16.27;;;8.32;;
75427;SDS011;64008;55.612;37.698;2023-06-26T02:27:08;15.48;;;9.05;;
75427;SDS011;64008;55.612;37.698;2023-06-26T02:32:00;12.07;;;7.85;;
75427;SDS011;64008;55.612;37.698;2023-06-26T02:34:26;12.55;;;7.65;;
75427;SDS011;64008;55.612;37.698;2023-06-26T02:36:52;13.50;;;8.13;;
75427;SDS011;64008;55.612;37.698;2023-06-26T02:39:20;16.67;;;8.15;;
75427;SDS011;64008;55.612;37.698;2023-06-26T02:41:46;16.23;;;9.15;;
75427;SDS011;64008;55.612;37.698;2023-06-26T02:44:11;18.45;;;8.55;;
75427;SDS011;64008;55.612;37.698;2023-06-26T02:46:37;16.17;;;8.95;;
75427;SDS011;64008;55.612;37.698;2023-06-26T02:49:03;15.32;;;7.93;;
75427;SDS011;64008;55.612;37.698;2023-06-26T02:51:29;14.07;;;8.25;;
75427;SDS011;64008;55.612;37.698;2023-06-26T02:53:55;13.88;;;9.00;;
75427;SDS011;64008;55.612;37.698;2023-06-26T02:56:20;20.42;;;7.90;;
75427;SDS011;64008;55.612;37.698;2023-06-26T02:58:46;15.18;;;8.23;;
75427;SDS011;64008;55.612;37.698;2023-06-26T03:01:11;17.13;;;8.05;;
75427;SDS011;64008;55.612;37.698;2023-06-26T03:03:36;14.02;;;7.80;;
75427;SDS011;64008;55.612;37.698;2023-06-26T03:06:08;17.80;;;8.32;;
75427;SDS011;64008;55.612;37.698;2023-06-26T03:08:37;18.15;;;8.85;;
75427;SDS011;64008;55.612;37.698;2023-06-26T03:11:04;15.38;;;8.90;;
75427;SDS011;64008;55.612;37.698;2023-06-26T03:13:30;18.33;;;9.35;;
75427;SDS011;64008;55.612;37.698;2023-06-26T03:15:56;17.95;;;8.45;;
75427;SDS011;64008;55.612;37.698;2023-06-26T03:18:22;17.27;;;9.25;;
75427;SDS011;64008;55.612;37.698;2023-06-26T03:20:47;14.98;;;8.48;;
75427;SDS011;64008;55.612;37.698;2023-06-26T03:23:13;15.82;;;9.95;;
75427;SDS011;64008;55.612;37.698;2023-06-26T03:25:38;13.63;;;8.80;;
75427;SDS011;64008;55.612;37.698;2023-06-26T03:28:04;16.02;;;9.27;;
75427;SDS011;64008;55.612;37.698;2023-06-26T03:30:29;16.92;;;8.88;;
75427;SDS011;64008;55.612;37.698;2023-06-26T03:32:55;17.00;;;8.13;;
75427;SDS011;64008;55.612;37.698;2023-06-26T03:35:21;16.80;;;9.77;;
75427;SDS011;64008;55.612;37.698;2023-06-26T03:37:48;15.55;;;8.93;;
75427;SDS011;64008;55.612;37.698;2023-06-26T03:40:13;13.75;;;8.07;;
75427;SDS011;64008;55.612;37.698;2023-06-26T03:42:39;15.23;;;8.57;;
75427;SDS011;64008;55.612;37.698;2023-06-26T03:45:05;13.80;;;8.57;;
75427;SDS011;64008;55.612;37.698;2023-06-26T03:47:31;12.40;;;8.32;;
75427;SDS011;64008;55.612;37.698;2023-06-26T03:49:56;12.65;;;7.65;;
75427;SDS011;64008;55.612;37.698;2023-06-26T03:52:22;16.45;;;8.18;;
75427;SDS011;64008;55.612;37.698;2023-06-26T03:54:47;16.08;;;8.77;;
75427;SDS011;64008;55.612;37.698;2023-06-26T03:57:14;13.88;;;8.32;;
75427;SDS011;64008;55.612;37.698;2023-06-26T03:59:39;15.27;;;8.02;;
75427;SDS011;64008;55.612;37.698;2023-06-26T04:02:05;14.07;;;8.00;;
75427;SDS011;64008;55.612;37.698;2023-06-26T04:04:30;12.05;;;7.57;;
75427;SDS011;64008;55.612;37.698;2023-06-26T04:06:56;13.70;;;7.95;;
75427;SDS011;64008;55.612;37.698;2023-06-26T04:09:22;14.77;;;7.90;;
75427;SDS011;64008;55.612;37.698;2023-06-26T04:11:47;11.88;;;7.60;;
75427;SDS011;64008;55.612;37.698;2023-06-26T04:14:13;13.32;;;7.75;;
75427;SDS011;64008;55.612;37.698;2023-06-26T04:16:38;16.10;;;9.05;;
75427;SDS011;64008;55.612;37.698;2023-06-26T04:19:04;12.98;;;7.35;;
75427;SDS011;64008;55.612;37.698;2023-06-26T04:21:30;14.63;;;8.07;;
75427;SDS011;64008;55.612;37.698;2023-06-26T04:23:56;13.50;;;8.07;;
75427;SDS011;64008;55.612;37.698;2023-06-26T04:26:21;15.27;;;7.70;;
75427;SDS011;64008;55.612;37.698;2023-06-26T04:28:47;13.15;;;7.78;;
75427;SDS011;64008;55.612;37.698;2023-06-26T04:31:13;12.98;;;7.35;;
75427;SDS011;64008;55.612;37.698;2023-06-26T04:33:38;13.63;;;7.20;;
75427;SDS011;64008;55.612;37.698;2023-06-26T04:36:04;13.38;;;7.47;;
75427;SDS011;64008;55.612;37.698;2023-06-26T04:38:31;14.13;;;7.18;;
75427;SDS011;64008;55.612;37.698;2023-06-26T04:41:00;12.90;;;6.53;;
75427;SDS011;64008;55.612;37.698;2023-06-26T04:43:26;12.80;;;6.50;;
75427;SDS011;64008;55.612;37.698;2023-06-26T04:45:52;11.73;;;6.55;;
75427;SDS011;64008;55.612;37.698;2023-06-26T04:48:17;13.90;;;7.03;;
75427;SDS011;64008;55.612;37.698;2023-06-26T04:50:43;11.38;;;7.00;;
75427;SDS011;64008;55.612;37.698;2023-06-26T04:53:08;11.82;;;6.30;;
75427;SDS011;64008;55.612;37.698;2023-06-26T04:55:34;15.35;;;7.00;;
75427;SDS011;64008;55.612;37.698;2023-06-26T04:58:00;11.95;;;6.57;;
75427;SDS011;64008;55.612;37.698;2023-06-26T05:00:25;11.63;;;6.45;;
75427;SDS011;64008;55.612;37.698;2023-06-26T05:02:51;15.25;;;6.22;;
75427;SDS011;64008;55.612;37.698;2023-06-26T05:05:25;10.57;;;5.93;;
75427;SDS011;64008;55.612;37.698;2023-06-26T05:07:54;11.73;;;6.28;;
75427;SDS011;64008;55.612;37.698;2023-06-26T05:10:20;10.45;;;5.75;;
75427;SDS011;64008;55.612;37.698;2023-06-26T05:12:46;13.20;;;6.20;;
75427;SDS011;64008;55.612;37.698;2023-06-26T05:15:12;10.82;;;5.88;;
75427;SDS011;64008;55.612;37.698;2023-06-26T05:17:37;10.45;;;5.82;;
75427;SDS011;64008;55.612;37.698;2023-06-26T05:20:03;11.35;;;5.53;;
75427;SDS011;64008;55.612;37.698;2023-06-26T05:22:30;12.05;;;5.65;;
75427;SDS011;64008;55.612;37.698;2023-06-26T05:24:58;9.63;;;5.28;;
75427;SDS011;64008;55.612;37.698;2023-06-26T05:27:25;10.45;;;5.47;;
75427;SDS011;64008;55.612;37.698;2023-06-26T05:32:17;8.52;;;5.05;;
75427;SDS011;64008;55.612;37.698;2023-06-26T05:34:44;9.50;;;4.97;;
75427;SDS011;64008;55.612;37.698;2023-06-26T05:37:13;8.25;;;4.95;;
75427;SDS011;64008;55.612;37.698;2023-06-26T05:39:43;8.93;;;5.70;;
75427;SDS011;64008;55.612;37.698;2023-06-26T05:42:09;9.95;;;5.30;;
75427;SDS011;64008;55.612;37.698;2023-06-26T05:44:35;9.98;;;5.70;;
75427;SDS011;64008;55.612;37.698;2023-06-26T05:47:01;11.02;;;5.75;;
75427;SDS011;64008;55.612;37.698;2023-06-26T05:49:26;8.93;;;5.05;;
75427;SDS011;64008;55.612;37.698;2023-06-26T05:51:52;11.98;;;5.45;;
75427;SDS011;64008;55.612;37.698;2023-06-26T05:54:18;7.68;;;5.00;;
75427;SDS011;64008;55.612;37.698;2023-06-26T05:56:43;10.40;;;5.82;;
75427;SDS011;64008;55.612;37.698;2023-06-26T06:01:36;11.45;;;5.20;;
75427;SDS011;64008;55.612;37.698;2023-06-26T06:04:01;11.85;;;5.10;;
75427;SDS011;64008;55.612;37.698;2023-06-26T06:06:27;10.55;;;5.18;;
75427;SDS011;64008;55.612;37.698;2023-06-26T06:08:52;17.80;;;5.93;;
75427;SDS011;64008;55.612;37.698;2023-06-26T06:11:18;11.32;;;5.07;;
75427;SDS011;64008;55.612;37.698;2023-06-26T06:13:44;7.68;;;5.15;;
75427;SDS011;64008;55.612;37.698;2023-06-26T06:16:09;11.55;;;5.70;;
75427;SDS011;64008;55.612;37.698;2023-06-26T06:18:35;10.63;;;5.28;;
75427;SDS011;64008;55.612;37.698;2023-06-26T06:21:00;10.18;;;5.07;;
75427;SDS011;64008;55.612;37.698;2023-06-26T06:23:26;11.32;;;5.32;;
75427;SDS011;64008;55.612;37.698;2023-06-26T06:25:52;8.25;;;5.00;;
75427;SDS011;64008;55.612;37.698;2023-06-26T06:28:17;9.98;;;5.75;;
75427;SDS011;64008;55.612;37.698;2023-06-26T06:30:43;10.07;;;5.40;;
75427;SDS011;64008;55.612;37.698;2023-06-26T06:33:08;8.63;;;4.80;;
75427;SDS011;64008;55.612;37.698;2023-06-26T06:35:34;12.98;;;5.28;;
75427;SDS011;64008;55.612;37.698;2023-06-26T06:37:59;9.35;;;5.13;;
75427;SDS011;64008;55.612;37.698;2023-06-26T06:40:25;9.18;;;5.00;;
75427;SDS011;64008;55.612;37.698;2023-06-26T06:42:51;8.98;;;5.05;;
75427;SDS011;64008;55.612;37.698;2023-06-26T06:45:16;9.18;;;4.72;;
75427;SDS011;64008;55.612;37.698;2023-06-26T06:47:42;9.95;;;5.20;;
75427;SDS011;64008;55.612;37.698;2023-06-26T06:50:07;9.80;;;4.53;;
75427;SDS011;64008;55.612;37.698;2023-06-26T06:52:42;7.90;;;4.28;;
75427;SDS011;64008;55.612;37.698;2023-06-26T06:55:08;8.77;;;5.18;;
75427;SDS011;64008;55.612;37.698;2023-06-26T06:57:37;8.18;;;4.68;;
75427;SDS011;64008;55.612;37.698;2023-06-26T07:02:34;12.18;;;5.95;;
75427;SDS011;64008;55.612;37.698;2023-06-26T07:05:00;7.72;;;4.60;;
75427;SDS011;64008;55.612;37.698;2023-06-26T07:07:28;7.60;;;4.80;;
75427;SDS011;64008;55.612;37.698;2023-06-26T07:09:56;9.40;;;4.65;;
75427;SDS011;64008;55.612;37.698;2023-06-26T07:12:26;9.50;;;4.75;;
75427;SDS011;64008;55.612;37.698;2023-06-26T07:14:51;12.20;;;4.57;;
75427;SDS011;64008;55.612;37.698;2023-06-26T07:17:18;8.40;;;4.53;;
75427;SDS011;64008;55.612;37.698;2023-06-26T07:19:44;7.00;;;4.70;;
75427;SDS011;64008;55.612;37.698;2023-06-26T07:22:10;7.50;;;4.72;;
75427;SDS011;64008;55.612;37.698;2023-06-26T07:24:36;7.57;;;4.50;;
75427;SDS011;64008;55.612;37.698;2023-06-26T07:27:01;8.05;;;4.07;;
75427;SDS011;64008;55.612;37.698;2023-06-26T07:29:27;7.65;;;3.88;;
75427;SDS011;64008;55.612;37.698;2023-06-26T07:31:52;6.13;;;3.83;;
75427;SDS011;64008;55.612;37.698;2023-06-26T07:34:18;8.15;;;4.35;;
75427;SDS011;64008;55.612;37.698;2023-06-26T07:36:44;7.30;;;4.40;;
75427;SDS011;64008;55.612;37.698;2023-06-26T07:39:09;13.13;;;7.55;;
75427;SDS011;64008;55.612;37.698;2023-06-26T07:41:35;8.48;;;5.32;;
75427;SDS011;64008;55.612;37.698;2023-06-26T07:44:00;10.75;;;6.85;;
75427;SDS011;64008;55.612;37.698;2023-06-26T07:46:26;10.15;;;5.50;;
75427;SDS011;64008;55.612;37.698;2023-06-26T07:48:51;16.58;;;9.85;;
75427;SDS011;64008;55.612;37.698;2023-06-26T07:51:17;15.95;;;8.85;;
75427;SDS011;64008;55.612;37.698;2023-06-26T07:53:43;15.15;;;9.25;;
75427;SDS011;64008;55.612;37.698;2023-06-26T07:56:08;19.98;;;10.82;;
75427;SDS011;64008;55.612;37.698;2023-06-26T07:58:34;17.77;;;10.60;;
75427;SDS011;64008;55.612;37.698;2023-06-26T08:00:59;21.95;;;13.25;;
75427;SDS011;64008;55.612;37.698;2023-06-26T08:03:24;20.17;;;11.23;;
75427;SDS011;64008;55.612;37.698;2023-06-26T08:05:50;19.50;;;10.70;;
75427;SDS011;64008;55.612;37.698;2023-06-26T08:08:15;15.18;;;8.82;;
75427;SDS011;64008;55.612;37.698;2023-06-26T08:10:41;12.68;;;6.72;;
75427;SDS011;64008;55.612;37.698;2023-06-26T08:13:06;14.23;;;7.78;;
75427;SDS011;64008;55.612;37.698;2023-06-26T08:15:32;13.68;;;8.07;;
75427;SDS011;64008;55.612;37.698;2023-06-26T08:17:57;11.57;;;6.05;;
75427;SDS011;64008;55.612;37.698;2023-06-26T08:20:23;10.02;;;5.72;;
75427;SDS011;64008;55.612;37.698;2023-06-26T08:22:49;10.70;;;5.15;;
75427;SDS011;64008;55.612;37.698;2023-06-26T08:25:16;11.07;;;6.65;;
75427;SDS011;64008;55.612;37.698;2023-06-26T08:27:42;12.25;;;6.43;;
75427;SDS011;64008;55.612;37.698;2023-06-26T08:30:07;11.75;;;5.45;;
75427;SDS011;64008;55.612;37.698;2023-06-26T08:32:33;10.00;;;5.82;;
75427;SDS011;64008;55.612;37.698;2023-06-26T08:34:59;9.20;;;5.07;;
75427;SDS011;64008;55.612;37.698;2023-06-26T08:37:24;9.25;;;5.45;;
75427;SDS011;64008;55.612;37.698;2023-06-26T08:39:50;8.18;;;5.10;;
75427;SDS011;64008;55.612;37.698;2023-06-26T08:42:15;7.97;;;5.00;;
75427;SDS011;64008;55.612;37.698;2023-06-26T08:44:41;8.00;;;5.03;;
75427;SDS011;64008;55.612;37.698;2023-06-26T08:47:07;8.20;;;4.78;;
75427;SDS011;64008;55.612;37.698;2023-06-26T08:49:37;8.43;;;4.47;;
75427;SDS011;64008;55.612;37.698;2023-06-26T08:52:24;7.90;;;4.50;;
75427;SDS011;64008;55.612;37.698;2023-06-26T08:54:56;8.95;;;4.70;;
75427;SDS011;64008;55.612;37.698;2023-06-26T08:57:24;23.80;;;5.35;;
75427;SDS011;64008;55.612;37.698;2023-06-26T08:59:51;38.08;;;5.85;;
75427;SDS011;64008;55.612;37.698;2023-06-26T09:02:17;17.85;;;5.15;;
75427;SDS011;64008;55.612;37.698;2023-06-26T09:04:43;10.95;;;4.60;;
75427;SDS011;64008;55.612;37.698;2023-06-26T09:07:08;15.10;;;5.13;;
75427;SDS011;64008;55.612;37.698;2023-06-26T09:09:34;10.52;;;4.90;;
75427;SDS011;64008;55.612;37.698;2023-06-26T09:12:03;9.25;;;4.80;;
75427;SDS011;64008;55.612;37.698;2023-06-26T09:14:29;9.55;;;4.47;;
75427;SDS011;64008;55.612;37.698;2023-06-26T09:16:55;8.73;;;4.50;;
75427;SDS011;64008;55.612;37.698;2023-06-26T09:19:21;10.45;;;4.47;;
75427;SDS011;64008;55.612;37.698;2023-06-26T09:21:48;8.70;;;4.18;;
75427;SDS011;64008;55.612;37.698;2023-06-26T09:24:15;9.48;;;4.55;;
75427;SDS011;64008;55.612;37.698;2023-06-26T09:29:07;8.38;;;4.30;;
75427;SDS011;64008;55.612;37.698;2023-06-26T09:31:38;10.18;;;4.30;;
75427;SDS011;64008;55.612;37.698;2023-06-26T09:34:04;10.18;;;4.55;;
75427;SDS011;64008;55.612;37.698;2023-06-26T09:36:30;8.57;;;4.90;;
75427;SDS011;64008;55.612;37.698;2023-06-26T09:39:04;7.25;;;4.15;;
75427;SDS011;64008;55.612;37.698;2023-06-26T09:41:33;7.97;;;4.57;;
75427;SDS011;64008;55.612;37.698;2023-06-26T09:44:01;8.75;;;4.40;;
75427;SDS011;64008;55.612;37.698;2023-06-26T09:46:28;7.88;;;4.03;;
75427;SDS011;64008;55.612;37.698;2023-06-26T09:49:10;7.30;;;4.25;;
75427;SDS011;64008;55.612;37.698;2023-06-26T09:51:36;7.28;;;4.63;;
75427;SDS011;64008;55.612;37.698;2023-06-26T09:54:04;8.40;;;4.50;;
75427;SDS011;64008;55.612;37.698;2023-06-26T09:56:30;7.85;;;4.07;;
75427;SDS011;64008;55.612;37.698;2023-06-26T09:58:56;9.32;;;4.70;;
75427;SDS011;64008;55.612;37.698;2023-06-26T10:01:23;7.43;;;4.28;;
75427;SDS011;64008;55.612;37.698;2023-06-26T10:03:50;8.02;;;4.00;;
75427;SDS011;64008;55.612;37.698;2023-06-26T10:06:17;7.97;;;4.43;;
75427;SDS011;64008;55.612;37.698;2023-06-26T10:08:46;9.02;;;4.10;;
75427;SDS011;64008;55.612;37.698;2023-06-26T10:11:14;8.50;;;4.80;;
75427;SDS011;64008;55.612;37.698;2023-06-26T10:13:44;8.50;;;4.65;;
75427;SDS011;64008;55.612;37.698;2023-06-26T10:16:13;8.20;;;4.72;;
75427;SDS011;64008;55.612;37.698;2023-06-26T10:18:43;6.38;;;3.63;;
75427;SDS011;64008;55.612;37.698;2023-06-26T10:21:09;9.43;;;4.35;;
75427;SDS011;64008;55.612;37.698;2023-06-26T10:23:38;8.13;;;4.00;;
75427;SDS011;64008;55.612;37.698;2023-06-26T10:26:05;8.18;;;4.80;;
75427;SDS011;64008;55.612;37.698;2023-06-26T10:28:32;10.38;;;5.05;;
75427;SDS011;64008;55.612;37.698;2023-06-26T10:31:00;8.13;;;4.72;;
75427;SDS011;64008;55.612;37.698;2023-06-26T10:33:28;10.13;;;5.03;;
75427;SDS011;64008;55.612;37.698;2023-06-26T10:35:54;8.75;;;4.95;;
75427;SDS011;64008;55.612;37.698;2023-06-26T10:41:23;9.68;;;4.93;;
75427;SDS011;64008;55.612;37.698;2023-06-26T10:46:24;10.10;;;4.35;;
75427;SDS011;64008;55.612;37.698;2023-06-26T10:48:59;10.43;;;4.60;;
75427;SDS011;64008;55.612;37.698;2023-06-26T10:51:26;9.48;;;5.43;;
75427;SDS011;64008;55.612;37.698;2023-06-26T10:53:56;8.07;;;4.88;;
75427;SDS011;64008;55.612;37.698;2023-06-26T10:59:26;7.93;;;4.13;;
75427;SDS011;64008;55.612;37.698;2023-06-26T11:02:02;12.82;;;4.20;;
75427;SDS011;64008;55.612;37.698;2023-06-26T11:07:16;7.93;;;4.25;;
75427;SDS011;64008;55.612;37.698;2023-06-26T11:09:55;7.32;;;3.83;;
75427;SDS011;64008;55.612;37.698;2023-06-26T11:15:13;7.72;;;4.40;;
75427;SDS011;64008;55.612;37.698;2023-06-26T11:17:40;8.00;;;4.13;;
75427;SDS011;64008;55.612;37.698;2023-06-26T11:20:07;7.63;;;4.03;;
75427;SDS011;64008;55.612;37.698;2023-06-26T11:22:38;7.55;;;4.03;;
75427;SDS011;64008;55.612;37.698;2023-06-26T11:25:05;8.13;;;4.10;;
75427;SDS011;64008;55.612;37.698;2023-06-26T11:27:38;7.90;;;4.25;;
75427;SDS011;64008;55.612;37.698;2023-06-26T11:30:08;7.82;;;4.80;;
75427;SDS011;64008;55.612;37.698;2023-06-26T11:32:36;7.90;;;4.38;;
75427;SDS011;64008;55.612;37.698;2023-06-26T11:35:01;9.27;;;4.80;;
75427;SDS011;64008;55.612;37.698;2023-06-26T11:37:27;7.93;;;4.32;;
75427;SDS011;64008;55.612;37.698;2023-06-26T11:39:53;7.03;;;3.90;;
75427;SDS011;64008;55.612;37.698;2023-06-26T11:42:19;7.60;;;4.18;;
75427;SDS011;64008;55.612;37.698;2023-06-26T11:44:45;7.78;;;3.97;;
75427;SDS011;64008;55.612;37.698;2023-06-26T11:49:44;7.00;;;3.85;;
75427;SDS011;64008;55.612;37.698;2023-06-26T11:52:10;8.88;;;4.25;;
75427;SDS011;64008;55.612;37.698;2023-06-26T11:54:35;8.73;;;4.40;;
75427;SDS011;64008;55.612;37.698;2023-06-26T11:57:01;7.03;;;4.28;;
75427;SDS011;64008;55.612;37.698;2023-06-26T11:59:36;7.75;;;4.28;;
75427;SDS011;64008;55.612;37.698;2023-06-26T12:02:07;6.88;;;3.63;;
75427;SDS011;64008;55.612;37.698;2023-06-26T12:04:38;7.40;;;4.25;;
75427;SDS011;64008;55.612;37.698;2023-06-26T12:07:07;6.82;;;3.85;;
75427;SDS011;64008;55.612;37.698;2023-06-26T12:09:41;8.90;;;4.13;;
75427;SDS011;64008;55.612;37.698;2023-06-26T12:12:09;9.88;;;4.20;;
75427;SDS011;64008;55.612;37.698;2023-06-26T12:14:35;6.22;;;3.58;;
75427;SDS011;64008;55.612;37.698;2023-06-26T12:17:11;6.43;;;3.45;;
75427;SDS011;64008;55.612;37.698;2023-06-26T12:19:39;6.78;;;3.92;;
75427;SDS011;64008;55.612;37.698;2023-06-26T12:22:15;7.93;;;3.78;;
75427;SDS011;64008;55.612;37.698;2023-06-26T12:24:41;7.70;;;3.75;;
75427;SDS011;64008;55.612;37.698;2023-06-26T12:27:11;6.63;;;3.58;;
75427;SDS011;64008;55.612;37.698;2023-06-26T12:29:39;5.97;;;3.45;;
75427;SDS011;64008;55.612;37.698;2023-06-26T12:32:08;5.88;;;3.38;;
75427;SDS011;64008;55.612;37.698;2023-06-26T12:34:36;7.65;;;3.47;;
75427;SDS011;64008;55.612;37.698;2023-06-26T12:37:07;6.95;;;3.55;;
75427;SDS011;64008;55.612;37.698;2023-06-26T12:39:47;6.50;;;3.72;;
75427;SDS011;64008;55.612;37.698;2023-06-26T12:42:19;7.07;;;3.83;;
75427;SDS011;64008;55.612;37.698;2023-06-26T12:44:47;6.57;;;3.75;;
75427;SDS011;64008;55.612;37.698;2023-06-26T12:47:14;8.23;;;3.60;;
75427;SDS011;64008;55.612;37.698;2023-06-26T12:49:41;6.40;;;4.00;;
75427;SDS011;64008;55.612;37.698;2023-06-26T12:52:08;6.82;;;3.60;;
75427;SDS011;64008;55.612;37.698;2023-06-26T12:54:36;6.28;;;3.58;;
75427;SDS011;64008;55.612;37.698;2023-06-26T12:57:03;6.65;;;3.75;;
75427;SDS011;64008;55.612;37.698;2023-06-26T12:59:32;6.40;;;3.45;;
75427;SDS011;64008;55.612;37.698;2023-06-26T13:01:59;6.95;;;3.78;;
75427;SDS011;64008;55.612;37.698;2023-06-26T13:06:51;6.35;;;3.63;;
75427;SDS011;64008;55.612;37.698;2023-06-26T13:09:17;6.90;;;3.67;;
75427;SDS011;64008;55.612;37.698;2023-06-26T13:11:43;7.90;;;3.83;;
75427;SDS011;64008;55.612;37.698;2023-06-26T13:14:09;8.10;;;3.50;;
75427;SDS011;64008;55.612;37.698;2023-06-26T13:16:35;6.85;;;3.60;;
75427;SDS011;64008;55.612;37.698;2023-06-26T13:19:01;8.23;;;3.70;;
75427;SDS011;64008;55.612;37.698;2023-06-26T13:21:27;6.97;;;3.78;;
75427;SDS011;64008;55.612;37.698;2023-06-26T13:23:54;6.72;;;3.40;;
75427;SDS011;64008;55.612;37.698;2023-06-26T13:26:20;8.30;;;3.83;;
75427;SDS011;64008;55.612;37.698;2023-06-26T13:28:47;8.45;;;3.58;;
75427;SDS011;64008;55.612;37.698;2023-06-26T13:31:13;6.57;;;3.33;;
75427;SDS011;64008;55.612;37.698;2023-06-26T13:33:39;6.88;;;4.07;;
75427;SDS011;64008;55.612;37.698;2023-06-26T13:36:04;6.60;;;3.75;;
75427;SDS011;64008;55.612;37.698;2023-06-26T13:38:32;8.48;;;3.95;;
75427;SDS011;64008;55.612;37.698;2023-06-26T13:40:59;8.85;;;3.90;;
75427;SDS011;64008;55.612;37.698;2023-06-26T13:43:25;7.18;;;3.60;;
75427;SDS011;64008;55.612;37.698;2023-06-26T13:45:52;6.70;;;3.08;;
75427;SDS011;64008;55.612;37.698;2023-06-26T13:48:18;7.88;;;3.85;;
75427;SDS011;64008;55.612;37.698;2023-06-26T13:50:43;6.53;;;3.55;;
75427;SDS011;64008;55.612;37.698;2023-06-26T13:53:09;6.53;;;3.50;;
75427;SDS011;64008;55.612;37.698;2023-06-26T13:55:35;6.28;;;3.65;;
75427;SDS011;64008;55.612;37.698;2023-06-26T13:58:02;6.72;;;3.22;;
75427;SDS011;64008;55.612;37.698;2023-06-26T14:00:30;5.80;;;3.47;;
75427;SDS011;64008;55.612;37.698;2023-06-26T14:02:56;6.10;;;3.28;;
75427;SDS011;64008;55.612;37.698;2023-06-26T14:05:22;5.97;;;3.28;;
75427;SDS011;64008;55.612;37.698;2023-06-26T14:07:48;5.40;;;2.92;;
75427;SDS011;64008;55.612;37.698;2023-06-26T14:10:13;5.88;;;3.40;;
75427;SDS011;64008;55.612;37.698;2023-06-26T14:12:40;6.57;;;3.30;;
75427;SDS011;64008;55.612;37.698;2023-06-26T14:15:06;6.57;;;3.20;;
75427;SDS011;64008;55.612;37.698;2023-06-26T14:17:32;6.57;;;3.25;;
75427;SDS011;64008;55.612;37.698;2023-06-26T14:19:58;5.88;;;2.95;;
75427;SDS011;64008;55.612;37.698;2023-06-26T14:22:24;4.97;;;2.85;;
75427;SDS011;64008;55.612;37.698;2023-06-26T14:24:50;6.75;;;3.33;;
75427;SDS011;64008;55.612;37.698;2023-06-26T14:27:15;5.43;;;2.53;;
75427;SDS011;64008;55.612;37.698;2023-06-26T14:29:41;5.55;;;2.75;;
75427;SDS011;64008;55.612;37.698;2023-06-26T14:32:07;5.97;;;3.00;;
75427;SDS011;64008;55.612;37.698;2023-06-26T14:34:32;6.57;;;3.20;;
75427;SDS011;64008;55.612;37.698;2023-06-26T14:36:58;6.18;;;3.13;;
75427;SDS011;64008;55.612;37.698;2023-06-26T14:39:24;9.88;;;3.25;;
75427;SDS011;64008;55.612;37.698;2023-06-26T14:41:49;8.38;;;3.85;;
75427;SDS011;64008;55.612;37.698;2023-06-26T14:44:15;8.52;;;3.53;;
75427;SDS011;64008;55.612;37.698;2023-06-26T14:46:41;7.00;;;3.65;;
75427;SDS011;64008;55.612;37.698;2023-06-26T14:49:07;9.18;;;3.80;;
75427;SDS011;64008;55.612;37.698;2023-06-26T14:51:32;6.18;;;3.42;;
75427;SDS011;64008;55.612;37.698;2023-06-26T14:53:58;6.63;;;3.47;;
75427;SDS011;64008;55.612;37.698;2023-06-26T14:56:24;8.40;;;4.13;;
75427;SDS011;64008;55.612;37.698;2023-06-26T14:58:50;6.13;;;3.47;;
75427;SDS011;64008;55.612;37.698;2023-06-26T15:01:17;7.82;;;3.47;;
75427;SDS011;64008;55.612;37.698;2023-06-26T15:03:45;7.00;;;3.53;;
75427;SDS011;64008;55.612;37.698;2023-06-26T15:06:11;5.75;;;3.33;;
75427;SDS011;64008;55.612;37.698;2023-06-26T15:08:37;7.57;;;3.65;;
75427;SDS011;64008;55.612;37.698;2023-06-26T15:11:02;6.75;;;3.83;;